sensor_id;sensor_type;location;lat;lon;timestamp;P1;durP1;ratioP1;P2;durP2;ratioP2
31238;SDS011;17871;31.584;74.450;2022-12-10T00:02:12;216.02;;;91.35;;
31238;SDS011;17871;31.584;74.450;2022-12-10T00:04:42;227.95;;;95.55;;
31238;SDS011;17871;31.584;74.450;2022-12-10T00:07:15;228.70;;;92.32;;
31238;SDS011;17871;31.584;74.450;2022-12-10T00:09:45;235.63;;;92.13;;
31238;SDS011;17871;31.584;74.450;2022-12-10T00:12:15;238.63;;;92.13;;
31238;SDS011;17871;31.584;74.450;2022-12-10T00:14:44;220.23;;;92.72;;
31238;SDS011;17871;31.584;74.450;2022-12-10T00:17:14;224.75;;;86.90;;
31238;SDS011;17871;31.584;74.450;2022-12-10T00:19:43;205.90;;;85.07;;
31238;SDS011;17871;31.584;74.450;2022-12-10T00:22:13;225.50;;;92.38;;
31238;SDS011;17871;31.584;74.450;2022-12-10T00:24:43;198.63;;;85.93;;
31238;SDS011;17871;31.584;74.450;2022-12-10T00:27:12;203.38;;;88.45;;
31238;SDS011;17871;31.584;74.450;2022-12-10T00:29:42;218.82;;;89.25;;
31238;SDS011;17871;31.584;74.450;2022-12-10T00:32:12;217.60;;;89.93;;
31238;SDS011;17871;31.584;74.450;2022-12-10T00:34:42;216.57;;;91.18;;
31238;SDS011;17871;31.584;74.450;2022-12-10T00:37:11;233.63;;;91.70;;
31238;SDS011;17871;31.584;74.450;2022-12-10T00:39:41;233.65;;;92.03;;
31238;SDS011;17871;31.584;74.450;2022-12-10T00:42:11;204.88;;;87.43;;
31238;SDS011;17871;31.584;74.450;2022-12-10T00:44:41;187.88;;;81.72;;
31238;SDS011;17871;31.584;74.450;2022-12-10T00:47:11;170.55;;;75.60;;
31238;SDS011;17871;31.584;74.450;2022-12-10T00:49:41;174.30;;;72.93;;
31238;SDS011;17871;31.584;74.450;2022-12-10T00:52:10;173.93;;;73.72;;
31238;SDS011;17871;31.584;74.450;2022-12-10T00:54:40;168.50;;;74.03;;
31238;SDS011;17871;31.584;74.450;2022-12-10T00:57:10;162.35;;;72.68;;
31238;SDS011;17871;31.584;74.450;2022-12-10T00:59:41;175.63;;;74.18;;
31238;SDS011;17871;31.584;74.450;2022-12-10T01:02:10;156.50;;;69.40;;
31238;SDS011;17871;31.584;74.450;2022-12-10T01:04:40;168.70;;;70.47;;
31238;SDS011;17871;31.584;74.450;2022-12-10T01:07:09;153.07;;;65.78;;
31238;SDS011;17871;31.584;74.450;2022-12-10T01:09:40;152.88;;;66.00;;
31238;SDS011;17871;31.584;74.450;2022-12-10T01:12:09;144.20;;;64.28;;
31238;SDS011;17871;31.584;74.450;2022-12-10T01:14:40;145.50;;;67.60;;
31238;SDS011;17871;31.584;74.450;2022-12-10T01:17:11;159.30;;;70.18;;
31238;SDS011;17871;31.584;74.450;2022-12-10T01:19:40;174.32;;;76.05;;
31238;SDS011;17871;31.584;74.450;2022-12-10T01:22:10;181.10;;;78.82;;
31238;SDS011;17871;31.584;74.450;2022-12-10T01:24:39;150.23;;;71.70;;
31238;SDS011;17871;31.584;74.450;2022-12-10T01:27:09;144.30;;;66.63;;
31238;SDS011;17871;31.584;74.450;2022-12-10T01:29:39;150.98;;;72.95;;
31238;SDS011;17871;31.584;74.450;2022-12-10T01:32:08;184.80;;;80.93;;
31238;SDS011;17871;31.584;74.450;2022-12-10T01:34:38;180.50;;;81.97;;
31238;SDS011;17871;31.584;74.450;2022-12-10T01:37:08;177.63;;;79.10;;
31238;SDS011;17871;31.584;74.450;2022-12-10T01:39:37;172.02;;;76.25;;
31238;SDS011;17871;31.584;74.450;2022-12-10T01:42:11;179.60;;;76.53;;
31238;SDS011;17871;31.584;74.450;2022-12-10T01:47:19;167.10;;;71.90;;
31238;SDS011;17871;31.584;74.450;2022-12-10T01:49:50;171.32;;;77.00;;
31238;SDS011;17871;31.584;74.450;2022-12-10T01:52:20;156.75;;;74.95;;
31238;SDS011;17871;31.584;74.450;2022-12-10T01:54:55;168.13;;;70.25;;
31238;SDS011;17871;31.584;74.450;2022-12-10T01:57:29;160.30;;;73.18;;
31238;SDS011;17871;31.584;74.450;2022-12-10T02:00:00;159.95;;;73.70;;
31238;SDS011;17871;31.584;74.450;2022-12-10T02:02:43;165.02;;;71.55;;
31238;SDS011;17871;31.584;74.450;2022-12-10T02:13:59;139.98;;;60.92;;
31238;SDS011;17871;31.584;74.450;2022-12-10T02:16:40;155.63;;;64.32;;
31238;SDS011;17871;31.584;74.450;2022-12-10T02:19:26;137.10;;;62.88;;
31238;SDS011;17871;31.584;74.450;2022-12-10T02:24:40;133.60;;;56.20;;
31238;SDS011;17871;31.584;74.450;2022-12-10T02:30:07;120.93;;;55.67;;
31238;SDS011;17871;31.584;74.450;2022-12-10T02:32:38;115.75;;;52.80;;
31238;SDS011;17871;31.584;74.450;2022-12-10T02:35:18;115.95;;;54.38;;
31238;SDS011;17871;31.584;74.450;2022-12-10T02:38:02;119.13;;;49.15;;
31238;SDS011;17871;31.584;74.450;2022-12-10T02:40:47;121.05;;;51.90;;
31238;SDS011;17871;31.584;74.450;2022-12-10T02:43:21;146.57;;;64.68;;
31238;SDS011;17871;31.584;74.450;2022-12-10T02:45:54;205.07;;;76.38;;
31238;SDS011;17871;31.584;74.450;2022-12-10T02:48:25;192.02;;;72.45;;
31238;SDS011;17871;31.584;74.450;2022-12-10T02:50:56;162.20;;;68.57;;
31238;SDS011;17871;31.584;74.450;2022-12-10T02:53:26;162.57;;;64.25;;
31238;SDS011;17871;31.584;74.450;2022-12-10T02:56:05;161.90;;;67.43;;
31238;SDS011;17871;31.584;74.450;2022-12-10T03:04:45;116.25;;;51.70;;
31238;SDS011;17871;31.584;74.450;2022-12-10T03:07:40;106.95;;;49.35;;
31238;SDS011;17871;31.584;74.450;2022-12-10T03:13:20;117.90;;;50.85;;
31238;SDS011;17871;31.584;74.450;2022-12-10T03:15:56;130.32;;;56.22;;
31238;SDS011;17871;31.584;74.450;2022-12-10T03:18:27;133.73;;;55.88;;
31238;SDS011;17871;31.584;74.450;2022-12-10T03:21:05;137.57;;;58.72;;
31238;SDS011;17871;31.584;74.450;2022-12-10T03:23:36;137.88;;;59.90;;
31238;SDS011;17871;31.584;74.450;2022-12-10T03:26:09;133.52;;;58.15;;
31238;SDS011;17871;31.584;74.450;2022-12-10T03:28:50;152.70;;;56.53;;
31238;SDS011;17871;31.584;74.450;2022-12-10T03:31:25;145.52;;;53.03;;
31238;SDS011;17871;31.584;74.450;2022-12-10T03:33:55;151.82;;;53.95;;
31238;SDS011;17871;31.584;74.450;2022-12-10T03:36:25;123.20;;;48.80;;
31238;SDS011;17871;31.584;74.450;2022-12-10T03:41:28;133.98;;;49.95;;
31238;SDS011;17871;31.584;74.450;2022-12-10T03:43:58;146.15;;;50.63;;
31238;SDS011;17871;31.584;74.450;2022-12-10T03:46:29;135.30;;;49.13;;
31238;SDS011;17871;31.584;74.450;2022-12-10T03:49:00;108.15;;;45.67;;
31238;SDS011;17871;31.584;74.450;2022-12-10T03:51:31;97.15;;;43.15;;
31238;SDS011;17871;31.584;74.450;2022-12-10T03:54:00;89.72;;;38.22;;
31238;SDS011;17871;31.584;74.450;2022-12-10T03:56:30;80.88;;;35.63;;
31238;SDS011;17871;31.584;74.450;2022-12-10T03:59:00;91.38;;;38.53;;
31238;SDS011;17871;31.584;74.450;2022-12-10T04:01:29;106.55;;;39.63;;
31238;SDS011;17871;31.584;74.450;2022-12-10T04:04:03;84.00;;;40.17;;
31238;SDS011;17871;31.584;74.450;2022-12-10T04:06:33;85.82;;;35.13;;
31238;SDS011;17871;31.584;74.450;2022-12-10T04:09:03;93.05;;;37.60;;
31238;SDS011;17871;31.584;74.450;2022-12-10T04:11:33;90.00;;;34.78;;
31238;SDS011;17871;31.584;74.450;2022-12-10T04:14:02;71.22;;;34.00;;
31238;SDS011;17871;31.584;74.450;2022-12-10T04:16:50;81.10;;;34.95;;
31238;SDS011;17871;31.584;74.450;2022-12-10T04:19:20;83.35;;;34.45;;
31238;SDS011;17871;31.584;74.450;2022-12-10T04:21:51;110.18;;;39.67;;
31238;SDS011;17871;31.584;74.450;2022-12-10T04:24:39;67.18;;;33.63;;
31238;SDS011;17871;31.584;74.450;2022-12-10T04:27:28;90.35;;;33.40;;
31238;SDS011;17871;31.584;74.450;2022-12-10T04:30:00;71.18;;;32.58;;
31238;SDS011;17871;31.584;74.450;2022-12-10T04:32:30;70.97;;;33.08;;
31238;SDS011;17871;31.584;74.450;2022-12-10T04:34:59;66.80;;;33.85;;
31238;SDS011;17871;31.584;74.450;2022-12-10T04:37:29;74.00;;;32.67;;
31238;SDS011;17871;31.584;74.450;2022-12-10T04:39:59;74.40;;;33.78;;
31238;SDS011;17871;31.584;74.450;2022-12-10T04:42:29;82.70;;;36.47;;
31238;SDS011;17871;31.584;74.450;2022-12-10T04:44:59;77.10;;;34.70;;
31238;SDS011;17871;31.584;74.450;2022-12-10T04:47:28;92.28;;;37.70;;
31238;SDS011;17871;31.584;74.450;2022-12-10T04:49:58;87.25;;;38.58;;
31238;SDS011;17871;31.584;74.450;2022-12-10T04:52:28;90.28;;;39.95;;
31238;SDS011;17871;31.584;74.450;2022-12-10T04:55:01;96.35;;;41.55;;
31238;SDS011;17871;31.584;74.450;2022-12-10T04:57:30;88.38;;;39.97;;
31238;SDS011;17871;31.584;74.450;2022-12-10T05:00:00;107.85;;;45.90;;
31238;SDS011;17871;31.584;74.450;2022-12-10T05:02:31;93.72;;;37.63;;
31238;SDS011;17871;31.584;74.450;2022-12-10T05:05:01;90.35;;;42.50;;
31238;SDS011;17871;31.584;74.450;2022-12-10T05:07:32;109.50;;;43.65;;
31238;SDS011;17871;31.584;74.450;2022-12-10T05:10:02;95.30;;;40.90;;
31238;SDS011;17871;31.584;74.450;2022-12-10T05:12:32;114.03;;;48.38;;
31238;SDS011;17871;31.584;74.450;2022-12-10T05:15:02;111.47;;;46.70;;
31238;SDS011;17871;31.584;74.450;2022-12-10T05:17:32;96.13;;;45.08;;
31238;SDS011;17871;31.584;74.450;2022-12-10T05:20:02;103.57;;;45.03;;
31238;SDS011;17871;31.584;74.450;2022-12-10T05:22:32;92.38;;;39.50;;
31238;SDS011;17871;31.584;74.450;2022-12-10T05:25:20;81.40;;;39.40;;
31238;SDS011;17871;31.584;74.450;2022-12-10T05:27:50;87.28;;;41.33;;
31238;SDS011;17871;31.584;74.450;2022-12-10T05:30:20;87.00;;;38.97;;
31238;SDS011;17871;31.584;74.450;2022-12-10T05:32:50;79.68;;;37.08;;
31238;SDS011;17871;31.584;74.450;2022-12-10T05:35:19;74.55;;;36.65;;
31238;SDS011;17871;31.584;74.450;2022-12-10T05:37:49;72.78;;;35.08;;
31238;SDS011;17871;31.584;74.450;2022-12-10T05:40:18;101.18;;;38.35;;
31238;SDS011;17871;31.584;74.450;2022-12-10T05:42:49;67.25;;;32.40;;
31238;SDS011;17871;31.584;74.450;2022-12-10T05:45:19;80.63;;;35.25;;
31238;SDS011;17871;31.584;74.450;2022-12-10T05:47:49;77.82;;;35.65;;
31238;SDS011;17871;31.584;74.450;2022-12-10T05:50:19;75.35;;;33.70;;
31238;SDS011;17871;31.584;74.450;2022-12-10T05:52:50;70.18;;;34.80;;
31238;SDS011;17871;31.584;74.450;2022-12-10T05:55:20;64.78;;;33.10;;
31238;SDS011;17871;31.584;74.450;2022-12-10T05:57:50;87.55;;;37.80;;
31238;SDS011;17871;31.584;74.450;2022-12-10T06:00:21;75.53;;;35.13;;
31238;SDS011;17871;31.584;74.450;2022-12-10T06:02:52;74.57;;;35.47;;
31238;SDS011;17871;31.584;74.450;2022-12-10T06:05:21;80.18;;;36.47;;
31238;SDS011;17871;31.584;74.450;2022-12-10T06:07:51;80.85;;;35.83;;
31238;SDS011;17871;31.584;74.450;2022-12-10T06:10:21;72.07;;;30.75;;
31238;SDS011;17871;31.584;74.450;2022-12-10T06:12:50;67.25;;;33.55;;
31238;SDS011;17871;31.584;74.450;2022-12-10T06:15:20;63.17;;;31.67;;
31238;SDS011;17871;31.584;74.450;2022-12-10T06:17:50;76.22;;;30.45;;
31238;SDS011;17871;31.584;74.450;2022-12-10T06:20:20;73.43;;;34.15;;
31238;SDS011;17871;31.584;74.450;2022-12-10T06:22:50;68.65;;;32.67;;
31238;SDS011;17871;31.584;74.450;2022-12-10T06:25:20;63.60;;;31.63;;
31238;SDS011;17871;31.584;74.450;2022-12-10T06:27:50;64.35;;;30.13;;
31238;SDS011;17871;31.584;74.450;2022-12-10T06:30:19;64.07;;;33.05;;
31238;SDS011;17871;31.584;74.450;2022-12-10T06:32:49;74.47;;;31.08;;
31238;SDS011;17871;31.584;74.450;2022-12-10T06:35:19;62.35;;;29.95;;
31238;SDS011;17871;31.584;74.450;2022-12-10T06:37:49;66.45;;;26.52;;
31238;SDS011;17871;31.584;74.450;2022-12-10T06:40:19;51.42;;;26.55;;
31238;SDS011;17871;31.584;74.450;2022-12-10T06:42:50;56.08;;;25.83;;
31238;SDS011;17871;31.584;74.450;2022-12-10T06:45:21;45.67;;;24.58;;
31238;SDS011;17871;31.584;74.450;2022-12-10T06:47:51;49.70;;;23.08;;
31238;SDS011;17871;31.584;74.450;2022-12-10T06:50:21;50.10;;;24.35;;
31238;SDS011;17871;31.584;74.450;2022-12-10T06:52:51;55.40;;;25.08;;
31238;SDS011;17871;31.584;74.450;2022-12-10T06:55:21;67.68;;;23.77;;
31238;SDS011;17871;31.584;74.450;2022-12-10T06:57:52;56.78;;;26.83;;
31238;SDS011;17871;31.584;74.450;2022-12-10T07:00:22;60.47;;;24.20;;
31238;SDS011;17871;31.584;74.450;2022-12-10T07:02:52;52.78;;;24.20;;
31238;SDS011;17871;31.584;74.450;2022-12-10T07:05:22;53.15;;;25.90;;
31238;SDS011;17871;31.584;74.450;2022-12-10T07:07:52;57.42;;;25.67;;
31238;SDS011;17871;31.584;74.450;2022-12-10T07:10:22;67.43;;;27.80;;
31238;SDS011;17871;31.584;74.450;2022-12-10T07:12:52;46.22;;;22.33;;
31238;SDS011;17871;31.584;74.450;2022-12-10T07:15:21;57.63;;;20.60;;
31238;SDS011;17871;31.584;74.450;2022-12-10T07:17:52;51.50;;;23.15;;
31238;SDS011;17871;31.584;74.450;2022-12-10T07:20:22;48.25;;;20.42;;
31238;SDS011;17871;31.584;74.450;2022-12-10T07:22:51;51.97;;;21.85;;
31238;SDS011;17871;31.584;74.450;2022-12-10T07:25:21;43.60;;;22.33;;
31238;SDS011;17871;31.584;74.450;2022-12-10T07:27:50;45.45;;;20.55;;
31238;SDS011;17871;31.584;74.450;2022-12-10T07:30:24;56.15;;;20.77;;
31238;SDS011;17871;31.584;74.450;2022-12-10T07:32:54;48.90;;;21.10;;
31238;SDS011;17871;31.584;74.450;2022-12-10T07:35:24;46.75;;;20.90;;
31238;SDS011;17871;31.584;74.450;2022-12-10T07:37:53;52.33;;;20.27;;
31238;SDS011;17871;31.584;74.450;2022-12-10T07:40:23;42.53;;;20.63;;
31238;SDS011;17871;31.584;74.450;2022-12-10T07:42:52;54.50;;;20.13;;
31238;SDS011;17871;31.584;74.450;2022-12-10T07:45:22;47.05;;;19.13;;
31238;SDS011;17871;31.584;74.450;2022-12-10T07:47:52;37.17;;;17.67;;
31238;SDS011;17871;31.584;74.450;2022-12-10T07:50:21;38.17;;;17.25;;
31238;SDS011;17871;31.584;74.450;2022-12-10T07:52:51;44.60;;;17.40;;
31238;SDS011;17871;31.584;74.450;2022-12-10T07:55:21;37.75;;;17.73;;
31238;SDS011;17871;31.584;74.450;2022-12-10T07:57:51;42.08;;;19.48;;
31238;SDS011;17871;31.584;74.450;2022-12-10T08:00:20;48.00;;;19.90;;
31238;SDS011;17871;31.584;74.450;2022-12-10T08:02:50;38.45;;;18.65;;
31238;SDS011;17871;31.584;74.450;2022-12-10T08:05:20;60.40;;;20.95;;
31238;SDS011;17871;31.584;74.450;2022-12-10T08:07:50;43.17;;;20.08;;
31238;SDS011;17871;31.584;74.450;2022-12-10T08:10:27;47.00;;;18.20;;
31238;SDS011;17871;31.584;74.450;2022-12-10T08:12:58;46.33;;;19.15;;
31238;SDS011;17871;31.584;74.450;2022-12-10T08:15:27;45.00;;;18.90;;
31238;SDS011;17871;31.584;74.450;2022-12-10T08:17:57;38.22;;;18.20;;
31238;SDS011;17871;31.584;74.450;2022-12-10T08:20:27;52.85;;;17.77;;
31238;SDS011;17871;31.584;74.450;2022-12-10T08:26:10;53.27;;;18.43;;
31238;SDS011;17871;31.584;74.450;2022-12-10T08:28:53;44.22;;;17.27;;
31238;SDS011;17871;31.584;74.450;2022-12-10T08:31:24;37.90;;;16.88;;
31238;SDS011;17871;31.584;74.450;2022-12-10T08:34:01;63.92;;;20.05;;
31238;SDS011;17871;31.584;74.450;2022-12-10T08:36:33;37.15;;;15.63;;
31238;SDS011;17871;31.584;74.450;2022-12-10T08:39:02;37.17;;;17.95;;
31238;SDS011;17871;31.584;74.450;2022-12-10T08:41:32;37.00;;;17.45;;
31238;SDS011;17871;31.584;74.450;2022-12-10T08:44:02;36.28;;;16.58;;
31238;SDS011;17871;31.584;74.450;2022-12-10T08:46:31;36.30;;;16.65;;
31238;SDS011;17871;31.584;74.450;2022-12-10T08:49:00;34.70;;;17.73;;
31238;SDS011;17871;31.584;74.450;2022-12-10T08:51:30;50.00;;;18.02;;
31238;SDS011;17871;31.584;74.450;2022-12-10T08:54:00;38.15;;;16.98;;
31238;SDS011;17871;31.584;74.450;2022-12-10T08:56:30;40.65;;;17.33;;
31238;SDS011;17871;31.584;74.450;2022-12-10T08:59:00;39.08;;;18.00;;
31238;SDS011;17871;31.584;74.450;2022-12-10T09:01:29;34.67;;;17.48;;
31238;SDS011;17871;31.584;74.450;2022-12-10T09:03:59;34.63;;;15.65;;
31238;SDS011;17871;31.584;74.450;2022-12-10T09:06:30;26.67;;;14.57;;
31238;SDS011;17871;31.584;74.450;2022-12-10T09:09:00;43.95;;;16.15;;
31238;SDS011;17871;31.584;74.450;2022-12-10T09:11:33;40.78;;;15.68;;
31238;SDS011;17871;31.584;74.450;2022-12-10T09:14:04;32.25;;;15.63;;
31238;SDS011;17871;31.584;74.450;2022-12-10T09:16:35;50.13;;;15.25;;
31238;SDS011;17871;31.584;74.450;2022-12-10T09:19:07;40.92;;;14.55;;
31238;SDS011;17871;31.584;74.450;2022-12-10T09:21:44;34.10;;;13.60;;
31238;SDS011;17871;31.584;74.450;2022-12-10T09:24:15;34.88;;;16.95;;
31238;SDS011;17871;31.584;74.450;2022-12-10T09:26:45;44.35;;;15.75;;
31238;SDS011;17871;31.584;74.450;2022-12-10T09:29:15;59.05;;;18.00;;
31238;SDS011;17871;31.584;74.450;2022-12-10T09:31:45;30.92;;;16.40;;
31238;SDS011;17871;31.584;74.450;2022-12-10T09:34:19;28.23;;;12.55;;
31238;SDS011;17871;31.584;74.450;2022-12-10T09:36:49;37.83;;;13.77;;
31238;SDS011;17871;31.584;74.450;2022-12-10T09:39:19;26.63;;;12.05;;
31238;SDS011;17871;31.584;74.450;2022-12-10T09:47:43;33.90;;;12.40;;
31238;SDS011;17871;31.584;74.450;2022-12-10T09:50:23;26.23;;;12.23;;
31238;SDS011;17871;31.584;74.450;2022-12-10T09:53:05;25.35;;;11.70;;
31238;SDS011;17871;31.584;74.450;2022-12-10T09:55:45;31.63;;;13.30;;
31238;SDS011;17871;31.584;74.450;2022-12-10T09:58:20;45.92;;;14.38;;
31238;SDS011;17871;31.584;74.450;2022-12-10T10:01:00;32.97;;;15.65;;
31238;SDS011;17871;31.584;74.450;2022-12-10T10:03:35;35.30;;;15.27;;
31238;SDS011;17871;31.584;74.450;2022-12-10T10:06:12;43.70;;;16.02;;
31238;SDS011;17871;31.584;74.450;2022-12-10T10:08:55;31.48;;;16.00;;
31238;SDS011;17871;31.584;74.450;2022-12-10T10:11:29;37.70;;;18.35;;
31238;SDS011;17871;31.584;74.450;2022-12-10T10:14:04;40.42;;;15.63;;
31238;SDS011;17871;31.584;74.450;2022-12-10T10:16:43;35.40;;;15.13;;
31238;SDS011;17871;31.584;74.450;2022-12-10T10:19:22;33.10;;;18.20;;
31238;SDS011;17871;31.584;74.450;2022-12-10T10:22:04;41.58;;;16.20;;
31238;SDS011;17871;31.584;74.450;2022-12-10T10:24:35;28.48;;;15.20;;
31238;SDS011;17871;31.584;74.450;2022-12-10T10:27:12;30.27;;;13.52;;
31238;SDS011;17871;31.584;74.450;2022-12-10T10:30:00;26.92;;;14.55;;
31238;SDS011;17871;31.584;74.450;2022-12-10T10:35:04;36.63;;;14.75;;
31238;SDS011;17871;31.584;74.450;2022-12-10T10:40:04;19.13;;;11.07;;
31238;SDS011;17871;31.584;74.450;2022-12-10T10:42:39;23.95;;;11.85;;
31238;SDS011;17871;31.584;74.450;2022-12-10T10:48:12;38.80;;;12.38;;
31238;SDS011;17871;31.584;74.450;2022-12-10T10:50:51;30.85;;;11.07;;
31238;SDS011;17871;31.584;74.450;2022-12-10T10:53:44;40.53;;;14.63;;
31238;SDS011;17871;31.584;74.450;2022-12-10T10:56:26;46.25;;;17.30;;
31238;SDS011;17871;31.584;74.450;2022-12-10T10:59:04;53.10;;;19.05;;
31238;SDS011;17871;31.584;74.450;2022-12-10T11:02:02;48.28;;;15.98;;
31238;SDS011;17871;31.584;74.450;2022-12-10T11:04:48;34.88;;;13.40;;
31238;SDS011;17871;31.584;74.450;2022-12-10T11:09:56;54.78;;;19.95;;
31238;SDS011;17871;31.584;74.450;2022-12-10T11:12:32;49.00;;;15.68;;
31238;SDS011;17871;31.584;74.450;2022-12-10T11:17:53;67.97;;;16.65;;
31238;SDS011;17871;31.584;74.450;2022-12-10T11:20:34;41.53;;;14.82;;
31238;SDS011;17871;31.584;74.450;2022-12-10T11:23:09;44.63;;;16.00;;
31238;SDS011;17871;31.584;74.450;2022-12-10T11:25:52;44.85;;;16.00;;
31238;SDS011;17871;31.584;74.450;2022-12-10T11:37:29;80.70;;;29.98;;
31238;SDS011;17871;31.584;74.450;2022-12-10T11:43:20;95.75;;;34.30;;
31238;SDS011;17871;31.584;74.450;2022-12-10T12:05:36;95.55;;;32.67;;
31238;SDS011;17871;31.584;74.450;2022-12-10T12:08:48;109.55;;;34.47;;
31238;SDS011;17871;31.584;74.450;2022-12-10T12:12:01;91.85;;;37.10;;
31238;SDS011;17871;31.584;74.450;2022-12-10T12:17:39;112.57;;;38.47;;
31238;SDS011;17871;31.584;74.450;2022-12-10T12:22:58;124.05;;;36.10;;
31238;SDS011;17871;31.584;74.450;2022-12-10T12:25:38;113.13;;;35.33;;
31238;SDS011;17871;31.584;74.450;2022-12-10T12:31:01;90.38;;;30.30;;
31238;SDS011;17871;31.584;74.450;2022-12-10T12:36:28;115.95;;;37.90;;
31238;SDS011;17871;31.584;74.450;2022-12-10T12:39:06;128.63;;;40.63;;
31238;SDS011;17871;31.584;74.450;2022-12-10T12:47:05;115.57;;;36.00;;
31238;SDS011;17871;31.584;74.450;2022-12-10T12:49:51;105.78;;;34.97;;
31238;SDS011;17871;31.584;74.450;2022-12-10T12:55:12;126.05;;;38.78;;
31238;SDS011;17871;31.584;74.450;2022-12-10T13:00:51;125.72;;;38.45;;
31238;SDS011;17871;31.584;74.450;2022-12-10T13:03:32;130.68;;;41.95;;
31238;SDS011;17871;31.584;74.450;2022-12-10T13:06:16;142.32;;;45.08;;
31238;SDS011;17871;31.584;74.450;2022-12-10T13:08:57;139.82;;;43.17;;
31238;SDS011;17871;31.584;74.450;2022-12-10T13:11:35;130.10;;;41.20;;
31238;SDS011;17871;31.584;74.450;2022-12-10T13:32:22;138.00;;;46.83;;
31238;SDS011;17871;31.584;74.450;2022-12-10T13:49:04;150.27;;;50.55;;
31238;SDS011;17871;31.584;74.450;2022-12-10T14:00:20;156.80;;;60.53;;
31238;SDS011;17871;31.584;74.450;2022-12-10T14:08:50;158.38;;;58.97;;
31238;SDS011;17871;31.584;74.450;2022-12-10T14:11:32;165.73;;;61.50;;
31238;SDS011;17871;31.584;74.450;2022-12-10T14:14:09;162.65;;;60.15;;
31238;SDS011;17871;31.584;74.450;2022-12-10T14:16:44;176.07;;;63.28;;
31238;SDS011;17871;31.584;74.450;2022-12-10T14:19:15;179.43;;;65.90;;
31238;SDS011;17871;31.584;74.450;2022-12-10T14:21:47;181.80;;;69.28;;
31238;SDS011;17871;31.584;74.450;2022-12-10T14:24:34;198.50;;;75.25;;
31238;SDS011;17871;31.584;74.450;2022-12-10T14:29:47;197.20;;;70.38;;
31238;SDS011;17871;31.584;74.450;2022-12-10T14:32:34;199.05;;;73.38;;
31238;SDS011;17871;31.584;74.450;2022-12-10T14:35:07;206.35;;;71.28;;
31238;SDS011;17871;31.584;74.450;2022-12-10T14:37:52;176.65;;;70.15;;
31238;SDS011;17871;31.584;74.450;2022-12-10T14:46:12;185.82;;;69.10;;
31238;SDS011;17871;31.584;74.450;2022-12-10T14:51:22;201.40;;;70.28;;
31238;SDS011;17871;31.584;74.450;2022-12-10T14:56:25;172.95;;;67.15;;
31238;SDS011;17871;31.584;74.450;2022-12-10T14:59:10;189.15;;;72.00;;
31238;SDS011;17871;31.584;74.450;2022-12-10T15:01:47;205.73;;;75.85;;
31238;SDS011;17871;31.584;74.450;2022-12-10T15:04:21;191.73;;;77.93;;
31238;SDS011;17871;31.584;74.450;2022-12-10T15:06:56;205.95;;;74.45;;
31238;SDS011;17871;31.584;74.450;2022-12-10T15:09:30;179.27;;;67.25;;
31238;SDS011;17871;31.584;74.450;2022-12-10T15:12:00;177.20;;;66.95;;
31238;SDS011;17871;31.584;74.450;2022-12-10T15:14:30;154.27;;;64.97;;
31238;SDS011;17871;31.584;74.450;2022-12-10T15:17:01;158.60;;;62.97;;
31238;SDS011;17871;31.584;74.450;2022-12-10T15:19:32;152.13;;;64.85;;
31238;SDS011;17871;31.584;74.450;2022-12-10T15:22:17;163.63;;;64.97;;
31238;SDS011;17871;31.584;74.450;2022-12-10T15:24:48;176.55;;;66.28;;
31238;SDS011;17871;31.584;74.450;2022-12-10T15:27:20;169.80;;;66.18;;
31238;SDS011;17871;31.584;74.450;2022-12-10T15:29:51;162.88;;;62.92;;
31238;SDS011;17871;31.584;74.450;2022-12-10T15:32:26;170.82;;;63.83;;
31238;SDS011;17871;31.584;74.450;2022-12-10T15:34:58;168.57;;;63.83;;
31238;SDS011;17871;31.584;74.450;2022-12-10T15:37:38;167.45;;;66.88;;
31238;SDS011;17871;31.584;74.450;2022-12-10T15:40:24;227.07;;;68.63;;
31238;SDS011;17871;31.584;74.450;2022-12-10T15:43:43;182.85;;;67.45;;
31238;SDS011;17871;31.584;74.450;2022-12-10T15:46:00;146.30;;;63.53;;
31238;SDS011;17871;31.584;74.450;2022-12-10T15:48:34;171.05;;;66.38;;
31238;SDS011;17871;31.584;74.450;2022-12-10T15:51:04;144.15;;;63.13;;
31238;SDS011;17871;31.584;74.450;2022-12-10T15:53:35;169.15;;;64.95;;
31238;SDS011;17871;31.584;74.450;2022-12-10T15:56:07;173.63;;;66.68;;
31238;SDS011;17871;31.584;74.450;2022-12-10T15:58:41;172.63;;;67.80;;
31238;SDS011;17871;31.584;74.450;2022-12-10T16:01:12;173.05;;;70.25;;
31238;SDS011;17871;31.584;74.450;2022-12-10T16:03:46;173.27;;;73.05;;
31238;SDS011;17871;31.584;74.450;2022-12-10T16:06:16;186.35;;;77.10;;
31238;SDS011;17871;31.584;74.450;2022-12-10T16:08:47;172.38;;;66.47;;
31238;SDS011;17871;31.584;74.450;2022-12-10T16:11:17;147.10;;;62.35;;
31238;SDS011;17871;31.584;74.450;2022-12-10T16:13:49;160.85;;;63.40;;
31238;SDS011;17871;31.584;74.450;2022-12-10T16:16:24;169.38;;;65.35;;
31238;SDS011;17871;31.584;74.450;2022-12-10T16:18:55;152.82;;;65.90;;
31238;SDS011;17871;31.584;74.450;2022-12-10T16:21:25;154.95;;;62.80;;
31238;SDS011;17871;31.584;74.450;2022-12-10T16:23:56;153.27;;;62.97;;
31238;SDS011;17871;31.584;74.450;2022-12-10T16:26:26;148.88;;;66.78;;
31238;SDS011;17871;31.584;74.450;2022-12-10T16:28:57;235.80;;;93.30;;
31238;SDS011;17871;31.584;74.450;2022-12-10T16:31:28;265.13;;;97.95;;
31238;SDS011;17871;31.584;74.450;2022-12-10T16:33:59;202.82;;;82.40;;
31238;SDS011;17871;31.584;74.450;2022-12-10T16:36:29;168.80;;;69.38;;
31238;SDS011;17871;31.584;74.450;2022-12-10T16:39:01;176.57;;;68.38;;
31238;SDS011;17871;31.584;74.450;2022-12-10T16:41:30;357.25;;;123.35;;
31238;SDS011;17871;31.584;74.450;2022-12-10T16:44:01;207.68;;;83.00;;
31238;SDS011;17871;31.584;74.450;2022-12-10T16:46:30;189.80;;;71.50;;
31238;SDS011;17871;31.584;74.450;2022-12-10T16:49:00;162.70;;;63.60;;
31238;SDS011;17871;31.584;74.450;2022-12-10T16:51:31;147.00;;;61.45;;
31238;SDS011;17871;31.584;74.450;2022-12-10T16:54:00;140.55;;;59.42;;
31238;SDS011;17871;31.584;74.450;2022-12-10T16:56:32;164.18;;;60.60;;
31238;SDS011;17871;31.584;74.450;2022-12-10T16:59:01;150.88;;;66.95;;
31238;SDS011;17871;31.584;74.450;2022-12-10T17:01:31;158.38;;;69.55;;
31238;SDS011;17871;31.584;74.450;2022-12-10T17:04:01;151.38;;;68.07;;
31238;SDS011;17871;31.584;74.450;2022-12-10T17:06:31;134.55;;;62.50;;
31238;SDS011;17871;31.584;74.450;2022-12-10T17:09:01;142.60;;;65.70;;
31238;SDS011;17871;31.584;74.450;2022-12-10T17:11:40;151.55;;;65.00;;
31238;SDS011;17871;31.584;74.450;2022-12-10T17:16:53;150.32;;;59.90;;
31238;SDS011;17871;31.584;74.450;2022-12-10T17:19:33;134.43;;;53.72;;
31238;SDS011;17871;31.584;74.450;2022-12-10T17:22:05;104.80;;;47.10;;
31238;SDS011;17871;31.584;74.450;2022-12-10T17:24:37;102.65;;;46.83;;
31238;SDS011;17871;31.584;74.450;2022-12-10T17:27:10;94.82;;;47.08;;